Time;durP1;ratioP1;P1;durP2;ratioP2;P2;SDS_P1;SDS_P2;PMS_P1;PMS_P2;Temp;Humidity;BMP_temperature;BMP_pressure;BME280_temperature;BME280_humidity;BME280_pressure;Samples;Min_cycle;Max_cycle;Signal;HPM_P1;HPM_P2
2022/12/10 00:01:52;;;;;;;16.90;14.27;;;;;;;2.61;69.88;99158.13;10356428;28;20041;-50
2022/12/10 00:06:53;;;;;;;17.88;14.52;;;;;;;2.58;69.84;99172.34;10354550;28;20057;-49
2022/12/10 00:11:54;;;;;;;19.23;14.48;;;;;;;2.64;69.71;99174.56;10358870;28;20050;-50
2022/12/10 00:16:56;;;;;;;16.38;13.85;;;;;;;2.52;69.80;99169.25;10361762;28;20111;-50
2022/12/10 00:21:57;;;;;;;18.83;13.93;;;;;;;2.34;70.73;99172.09;10359957;28;20128;-50
2022/12/10 00:26:59;;;;;;;17.40;14.25;;;;;;;2.38;70.09;99157.84;10357937;28;20061;-49
2022/12/10 00:32:00;;;;;;;18.60;13.90;;;;;;;2.52;69.89;99171.88;10355888;28;20072;-50
2022/12/10 00:37:02;;;;;;;19.55;14.63;;;;;;;2.50;69.87;99165.88;10358411;28;20874;-51
2022/12/10 00:42:03;;;;;;;17.60;14.73;;;;;;;2.55;69.83;99169.06;10359876;28;20053;-49
2022/12/10 00:47:05;;;;;;;16.30;14.07;;;;;;;2.51;69.50;99172.81;10359210;28;20054;-50
2022/12/10 00:52:06;;;;;;;15.85;13.05;;;;;;;2.52;69.58;99175.34;10359651;28;20133;-49
2022/12/10 00:57:08;;;;;;;12.82;11.50;;;;;;;2.53;69.35;99165.69;10358088;28;20088;-50
2022/12/10 01:02:09;;;;;;;14.18;12.40;;;;;;;2.50;69.09;99165.88;10356073;28;20045;-51
2022/12/10 01:07:11;;;;;;;14.07;11.35;;;;;;;2.36;69.29;99170.25;10358667;28;20689;-48
2022/12/10 01:12:12;;;;;;;13.05;11.65;;;;;;;2.03;70.42;99146.97;10360003;28;20064;-50
2022/12/10 01:17:14;;;;;;;14.02;11.10;;;;;;;2.32;70.35;99178.41;10360935;28;20468;-49
2022/12/10 01:22:15;;;;;;;16.55;12.80;;;;;;;2.42;69.04;99180.34;10358693;28;20132;-49
2022/12/10 01:27:16;;;;;;;14.70;12.20;;;;;;;2.41;68.65;99186.53;10360845;28;20632;-51
2022/12/10 01:32:18;;;;;;;15.52;12.52;;;;;;;2.33;69.13;99190.59;10361391;28;20049;-49
2022/12/10 01:37:19;;;;;;;16.77;12.15;;;;;;;2.31;68.76;99203.81;10370220;28;20793;-51
2022/12/10 01:42:21;;;;;;;16.00;13.38;;;;;;;2.34;68.78;99206.25;10370988;28;20582;-52
2022/12/10 01:47:23;;;;;;;13.23;11.77;;;;;;;2.31;68.15;99201.19;10372745;28;20655;-51
2022/12/10 01:52:24;;;;;;;13.25;11.57;;;;;;;2.29;68.14;99219.66;10368966;28;20507;-49
2022/12/10 01:57:27;;;;;;;12.38;10.70;;;;;;;2.28;68.32;99218.00;10368908;28;20852;-54
2022/12/10 02:03:01;;;;;;;12.70;11.15;;;;;;;2.09;68.85;99220.91;10360320;28;20060;-50
2022/12/10 02:08:22;;;;;;;15.07;11.43;;;;;;;2.14;69.19;99215.38;10368956;28;20081;-49
2022/12/10 02:13:39;;;;;;;13.77;11.02;;;;;;;2.06;68.97;99213.25;10368510;28;20085;-49
2022/12/10 02:18:47;;;;;;;13.73;11.88;;;;;;;2.09;68.99;99220.09;10366622;28;20056;-49
2022/12/10 02:24:11;;;;;;;12.43;10.88;;;;;;;2.02;69.42;99208.28;10363153;28;20037;-50
2022/12/10 02:29:16;;;;;;;14.07;10.60;;;;;;;1.94;69.49;99206.13;10363180;28;20041;-50
2022/12/10 02:34:30;;;;;;;12.73;10.88;;;;;;;1.85;69.50;99201.44;10355937;28;20041;-50
2022/12/10 02:39:38;;;;;;;12.73;11.05;;;;;;;1.84;69.38;99187.47;10363476;28;20604;-50
2022/12/10 02:44:42;;;;;;;12.85;11.20;;;;;;;1.58;70.45;99199.56;10362178;28;20045;-50
2022/12/10 02:49:47;;;;;;;12.55;10.20;;;;;;;1.68;69.76;99184.94;10362302;28;20068;-51
2022/12/10 02:54:49;;;;;;;12.50;9.70;;;;;;;1.85;69.88;99201.44;10362703;28;20128;-51
2022/12/10 03:00:04;;;;;;;12.38;10.75;;;;;;;1.76;70.04;99206.31;10363058;28;20053;-50
2022/12/10 03:05:52;;;;;;;11.93;10.60;;;;;;;1.80;69.85;99209.56;10363532;28;20052;-50
2022/12/10 03:11:11;;;;;;;13.75;10.85;;;;;;;1.71;70.51;99205.75;10312653;28;20037;-50
2022/12/10 03:16:14;;;;;;;13.65;11.88;;;;;;;1.69;69.99;99197.13;10363257;28;20041;-50
2022/12/10 03:21:17;;;;;;;14.05;11.30;;;;;;;1.70;70.45;99201.44;10363526;28;20131;-50
2022/12/10 03:26:21;;;;;;;13.90;11.13;;;;;;;1.71;70.30;99197.88;10360445;28;20521;-50
2022/12/10 03:31:23;;;;;;;13.07;11.05;;;;;;;1.63;70.34;99194.88;10364171;28;20842;-50
2022/12/10 03:36:27;;;;;;;12.98;10.82;;;;;;;1.59;70.63;99182.88;10364544;28;20037;-48
2022/12/10 03:41:28;;;;;;;13.75;11.23;;;;;;;1.44;70.87;99183.78;10362679;28;20076;-51
2022/12/10 03:46:31;;;;;;;13.27;10.98;;;;;;;1.52;70.99;99192.06;10363210;28;20553;-51
2022/12/10 03:51:33;;;;;;;11.63;9.82;;;;;;;1.46;71.20;99184.56;10362134;28;20054;-49
2022/12/10 03:56:34;;;;;;;12.50;10.43;;;;;;;1.23;72.15;99185.00;10361764;28;20056;-50
2022/12/10 04:01:35;;;;;;;11.75;10.50;;;;;;;1.30;72.03;99188.06;10361148;28;20498;-50
2022/12/10 04:06:39;;;;;;;12.25;9.63;;;;;;;1.44;71.89;99196.91;10361618;28;20632;-50
2022/12/10 04:11:41;;;;;;;11.93;10.38;;;;;;;1.41;71.60;99193.53;10358140;28;20042;-50
2022/12/10 04:16:42;;;;;;;14.77;10.80;;;;;;;1.13;72.00;99151.53;10361745;28;20738;-50
2022/12/10 04:27:12;;;;;;;13.77;11.23;;;;;;;1.40;71.61;99210.19;10360879;28;20572;-50
2022/12/10 04:32:14;;;;;;;13.95;12.15;;;;;;;1.44;71.85;99207.41;10357888;28;20049;-50
2022/12/10 04:37:16;;;;;;;13.00;10.63;;;;;;;1.47;72.23;99212.47;10361168;28;20160;-49
2022/12/10 04:42:18;;;;;;;11.48;10.25;;;;;;;1.39;72.05;99219.00;10360995;28;20125;-53
2022/12/10 04:47:20;;;;;;;13.82;11.63;;;;;;;1.53;71.60;99212.09;10363206;28;20037;-49
2022/12/10 04:52:21;;;;;;;13.82;11.80;;;;;;;1.54;71.17;99217.25;10361647;28;20142;-48
2022/12/10 04:57:22;;;;;;;14.00;12.23;;;;;;;1.60;71.20;99205.53;10351889;28;20853;-49
2022/12/10 05:02:24;;;;;;;12.57;11.20;;;;;;;1.66;71.54;99213.03;10376505;28;20129;-51
2022/12/10 05:07:25;;;;;;;15.27;11.80;;;;;;;1.59;70.93;99222.22;10361883;28;20096;-51
2022/12/10 05:12:27;;;;;;;14.25;11.77;;;;;;;1.28;71.10;99176.84;10371621;28;20056;-51
2022/12/10 05:17:29;;;;;;;13.63;11.00;;;;;;;1.54;71.79;99221.66;10368414;28;20169;-49
2022/12/10 05:27:50;;;;;;;13.40;11.15;;;;;;;1.64;71.39;99225.41;10370030;28;20053;-51
2022/12/10 05:32:51;;;;;;;10.95;9.82;;;;;;;1.62;71.96;99224.66;10370964;28;20129;-49
2022/12/10 05:37:53;;;;;;;15.50;11.80;;;;;;;1.67;71.35;99225.22;10366970;28;20098;-50
2022/12/10 05:42:54;;;;;;;11.98;10.77;;;;;;;1.64;71.40;99232.47;10369757;28;20064;-50
2022/12/10 05:47:56;;;;;;;13.00;11.07;;;;;;;1.64;71.54;99224.59;10366003;28;20057;-49
2022/12/10 05:52:57;;;;;;;12.48;11.00;;;;;;;1.69;71.24;99233.84;10363460;28;20045;-49
2022/12/10 05:57:59;;;;;;;14.80;12.25;;;;;;;1.70;71.14;99240.78;10369368;28;20047;-50
2022/12/10 06:03:01;;;;;;;12.90;11.60;;;;;;;1.61;71.46;99220.34;10368733;28;20045;-49
2022/12/10 06:08:03;;;;;;;14.65;11.80;;;;;;;1.83;71.23;99242.66;10356859;28;20068;-50
2022/12/10 06:13:05;;;;;;;14.18;11.90;;;;;;;1.89;70.96;99247.53;10356153;28;20045;-50
2022/12/10 06:18:06;;;;;;;14.75;11.93;;;;;;;1.96;70.93;99251.50;10347020;28;20049;-50
2022/12/10 06:23:08;;;;;;;12.30;10.95;;;;;;;2.00;70.78;99258.25;10358146;28;20188;-49
2022/12/10 06:28:09;;;;;;;14.35;11.80;;;;;;;1.98;70.98;99254.84;10362450;28;20149;-50
2022/12/10 06:33:11;;;;;;;15.77;12.98;;;;;;;1.95;70.93;99247.16;10362693;28;20532;-50
2022/12/10 06:38:12;;;;;;;14.35;12.32;;;;;;;2.01;71.37;99270.44;10361929;28;20290;-53
2022/12/10 06:43:16;;;;;;;14.65;12.43;;;;;;;2.15;71.62;99280.09;10366628;28;20041;-50
2022/12/10 06:48:17;;;;;;;13.50;11.65;;;;;;;2.27;71.03;99281.97;10361182;28;20113;-50
2022/12/10 06:53:18;;;;;;;12.73;11.35;;;;;;;2.33;71.13;99275.50;10360614;28;20057;-50
2022/12/10 06:58:20;;;;;;;14.32;11.23;;;;;;;2.38;71.10;99288.34;10364782;28;20144;-49
2022/12/10 07:03:21;;;;;;;13.43;11.00;;;;;;;2.35;70.98;99286.72;10360270;28;20071;-50
2022/12/10 07:08:23;;;;;;;12.35;11.02;;;;;;;2.25;71.96;99294.34;10357836;28;20050;-50
2022/12/10 07:13:25;;;;;;;14.13;11.20;;;;;;;2.07;72.32;99285.81;10357774;28;20104;-50
2022/12/10 07:18:31;;;;;;;12.27;10.40;;;;;;;2.26;71.64;99287.31;10357322;28;20056;-52
2022/12/10 07:23:32;;;;;;;11.85;10.63;;;;;;;2.48;71.48;99306.06;10356585;28;20508;-50
2022/12/10 07:28:34;;;;;;;14.07;11.18;;;;;;;2.40;71.61;99308.31;10359984;28;20071;-50
2022/12/10 07:33:44;;;;;;;10.90;9.65;;;;;;;2.32;71.58;99302.69;10358542;28;20041;-50
2022/12/10 07:38:46;;;;;;;11.45;10.25;;;;;;;2.38;71.94;99322.47;10364041;28;20049;-50
2022/12/10 07:43:47;;;;;;;11.57;9.60;;;;;;;2.55;71.11;99321.44;10356502;28;20045;-50
2022/12/10 07:48:49;;;;;;;12.98;10.52;;;;;;;2.64;71.10;99323.47;10362879;28;20045;-50
2022/12/10 07:53:53;;;;;;;12.90;10.73;;;;;;;2.72;70.60;99339.63;10361101;28;20639;-50
2022/12/10 07:58:54;;;;;;;11.50;10.07;;;;;;;2.77;70.42;99334.91;10361655;28;20060;-50
2022/12/10 08:03:56;;;;;;;12.82;11.23;;;;;;;2.76;70.52;99338.50;10365598;28;20077;-50
2022/12/10 08:08:59;;;;;;;13.85;10.88;;;;;;;2.82;70.48;99340.75;10361382;28;20049;-50
2022/12/10 08:14:00;;;;;;;12.73;10.52;;;;;;;2.84;70.51;99353.78;10362175;28;20033;-50
2022/12/10 08:19:02;;;;;;;12.85;11.45;;;;;;;2.82;70.10;99337.25;10363006;28;20051;-50
2022/12/10 08:24:04;;;;;;;13.35;11.48;;;;;;;2.93;70.25;99349.75;10362345;28;20471;-50
2022/12/10 08:29:05;;;;;;;14.27;12.05;;;;;;;3.16;69.59;99351.72;10361285;28;20195;-49
2022/12/10 08:34:15;;;;;;;12.70;11.35;;;;;;;2.89;69.70;99350.88;10363259;28;20677;-50
2022/12/10 08:39:16;;;;;;;11.52;10.05;;;;;;;3.02;70.21;99357.03;10362048;28;20473;-51
2022/12/10 08:44:18;;;;;;;13.85;11.25;;;;;;;3.09;69.27;99358.34;10368995;28;20056;-50
2022/12/10 08:49:19;;;;;;;12.70;11.40;;;;;;;3.24;69.10;99369.63;10372951;28;20590;-49
2022/12/10 08:54:20;;;;;;;12.88;11.50;;;;;;;3.44;67.90;99363.09;10372714;28;20049;-50
2022/12/10 08:59:22;;;;;;;13.32;11.40;;;;;;;3.50;67.86;99375.03;10364492;28;20632;-50
2022/12/10 09:04:23;;;;;;;12.25;10.88;;;;;;;3.53;67.75;99378.28;10369050;28;20060;-51
2022/12/10 09:09:25;;;;;;;13.75;11.02;;;;;;;3.70;67.23;99378.97;10367631;28;20176;-50
2022/12/10 09:14:27;;;;;;;12.75;11.25;;;;;;;3.77;66.45;99382.91;10370967;28;20053;-50
2022/12/10 09:19:28;;;;;;;11.98;10.70;;;;;;;3.81;65.93;99384.34;10372609;28;20056;-50
2022/12/10 09:24:29;;;;;;;12.63;11.32;;;;;;;3.83;65.92;99390.38;10371273;28;20512;-50
2022/12/10 09:29:31;;;;;;;13.52;12.13;;;;;;;3.88;66.35;99393.53;10360587;28;20057;-50
2022/12/10 09:34:32;;;;;;;12.50;11.20;;;;;;;4.01;64.95;99398.00;10363436;28;20045;-50
2022/12/10 09:39:33;;;;;;;12.07;10.77;;;;;;;4.05;65.02;99395.06;10363187;28;20046;-50
2022/12/10 09:44:52;;;;;;;12.77;11.23;;;;;;;4.08;64.95;99388.72;10358936;28;20045;-50
2022/12/10 09:50:02;;;;;;;11.98;10.73;;;;;;;3.97;65.52;99402.63;10346384;28;20140;-50
2022/12/10 09:55:16;;;;;;;12.95;11.25;;;;;;;3.96;65.64;99389.56;10363261;28;20541;-51
2022/12/10 10:00:35;;;;;;;12.57;10.20;;;;;;;3.79;65.86;99383.63;10354532;28;20056;-50
2022/12/10 10:05:43;;;;;;;12.77;10.52;;;;;;;3.69;66.57;99388.66;10359032;28;20046;-51
2022/12/10 10:10:45;;;;;;;12.43;10.65;;;;;;;3.76;67.23;99393.53;10359257;28;20061;-50
2022/12/10 10:15:47;;;;;;;13.02;11.02;;;;;;;4.11;65.20;99350.81;10356208;28;20807;-52
2022/12/10 10:20:49;;;;;;;13.95;12.55;;;;;;;4.47;64.05;99389.59;10353435;28;20103;-49
2022/12/10 10:25:51;;;;;;;13.05;10.73;;;;;;;4.44;64.62;99374.00;10356712;28;20068;-50
2022/12/10 10:30:54;;;;;;;13.13;10.77;;;;;;;4.35;64.45;99380.72;10356034;28;20584;-50
2022/12/10 10:35:58;;;;;;;12.90;11.55;;;;;;;4.46;64.21;99395.84;10354904;28;20533;-49
2022/12/10 10:41:03;;;;;;;12.85;11.55;;;;;;;4.73;63.79;99381.69;10360020;28;20142;-49
2022/12/10 10:46:17;;;;;;;16.48;11.55;;;;;;;4.71;63.78;99373.88;10362400;28;20045;-49
2022/12/10 10:51:23;;;;;;;13.23;11.88;;;;;;;4.71;63.89;99380.94;10362528;28;20057;-49
2022/12/10 10:56:29;;;;;;;13.05;11.65;;;;;;;4.87;63.36;99381.53;10364964;28;20133;-50
2022/12/10 11:01:51;;;;;;;13.25;11.85;;;;;;;4.72;64.35;99393.19;10359705;28;20075;-50
2022/12/10 11:06:56;;;;;;;14.38;12.30;;;;;;;4.76;64.15;99392.84;10362060;28;20568;-50
2022/12/10 11:12:01;;;;;;;14.10;12.52;;;;;;;4.90;63.49;99385.78;10353386;28;20050;-50
2022/12/10 11:17:09;;;;;;;13.77;12.30;;;;;;;5.02;62.92;99394.59;10334295;28;20178;-50
2022/12/10 11:22:22;;;;;;;14.80;13.20;;;;;;;5.25;62.16;99396.41;10326131;28;20588;-51
2022/12/10 11:27:35;;;;;;;12.75;11.43;;;;;;;5.55;60.89;99396.97;10325602;28;20753;-51
2022/12/10 11:32:58;;;;;;;13.18;11.65;;;;;;;5.55;60.32;99384.59;10329890;28;20574;-50
2022/12/10 11:38:26;;;;;;;13.05;11.65;;;;;;;5.92;59.25;99383.69;10345808;28;20064;-49
2022/12/10 11:43:55;;;;;;;14.13;11.00;;;;;;;6.07;58.16;99382.53;10334552;28;20054;-49
2022/12/10 11:48:57;;;;;;;12.48;11.23;;;;;;;11.01;45.97;99380.22;10334333;28;20079;-48
2022/12/10 11:54:26;;;;;;;11.32;10.23;;;;;;;13.91;39.19;99374.78;10332026;28;20125;-49
2022/12/10 11:59:53;;;;;;;10.82;9.82;;;;;;;17.88;31.78;99374.41;10334369;28;20049;-49
2022/12/10 12:05:51;;;;;;;11.23;10.10;;;;;;;18.57;29.92;99372.91;10323873;28;20148;-50
2022/12/10 12:11:14;;;;;;;9.90;8.90;;;;;;;20.21;27.42;99378.50;10333241;28;20160;-50
2022/12/10 12:16:19;;;;;;;;;;;;;;;20.55;25.87;99373.91;10327256;28;20295;-49
2022/12/10 12:21:21;;;;;;;10.15;9.25;;;;;;;21.32;24.78;99366.00;10330617;28;19924;-49
2022/12/10 12:26:28;;;;;;;11.05;10.05;;;;;;;21.23;24.93;99365.44;10330600;28;21327;-50
2022/12/10 12:31:35;;;;;;;9.50;8.70;;;;;;;21.48;24.60;99361.97;10327736;28;20908;-50
2022/12/10 12:36:37;;;;;;;10.43;9.52;;;;;;;14.88;32.80;99370.47;10330632;28;20045;-47
2022/12/10 12:42:01;;;;;;;10.15;9.25;;;;;;;12.10;37.67;99383.84;10331787;28;20056;-50
2022/12/10 12:47:36;;;;;;;8.55;7.82;;;;;;;12.84;35.97;99376.31;10325262;28;20695;-50
2022/12/10 12:52:43;;;;;;;10.50;9.60;;;;;;;10.06;41.35;99395.31;10342584;28;20046;-49
2022/12/10 12:58:22;;;;;;;9.90;8.95;;;;;;;8.28;45.69;99399.38;10329174;28;20354;-51
2022/12/10 13:03:44;;;;;;;9.90;8.90;;;;;;;9.76;44.85;99396.28;10313312;28;20130;-50
2022/12/10 13:08:48;;;;;;;9.35;8.45;;;;;;;10.86;40.23;99385.22;10329828;28;20052;-50
2022/12/10 13:14:08;;;;;;;9.48;8.57;;;;;;;8.73;43.83;99399.09;10328125;28;20701;-50
2022/12/10 13:19:15;;;;;;;8.90;8.02;;;;;;;8.21;46.01;99409.69;10322296;28;21023;-50
2022/12/10 13:24:35;;;;;;;9.82;8.82;;;;;;;7.14;48.90;99409.53;10324799;28;20052;-49
2022/12/10 13:29:48;;;;;;;9.90;8.90;;;;;;;6.94;49.75;99407.66;10327212;28;20057;-49
2022/12/10 13:35:08;;;;;;;10.23;9.23;;;;;;;6.71;50.13;99420.84;10336460;28;20055;-50
2022/12/10 13:40:09;;;;;;;9.30;8.40;;;;;;;6.95;50.10;99428.69;10333781;28;20543;-49
2022/12/10 13:45:21;;;;;;;9.45;8.55;;;;;;;8.58;45.35;99432.28;10333601;28;20164;-49
2022/12/10 13:50:34;;;;;;;9.02;8.20;;;;;;;7.79;46.96;99439.63;10333470;28;20053;-49
2022/12/10 13:55:45;;;;;;;9.52;8.52;;;;;;;7.33;49.08;99451.28;10332495;28;20058;-48
2022/12/10 14:01:02;;;;;;;9.43;8.52;;;;;;;6.84;49.73;99457.78;10335472;28;20077;-48
2022/12/10 14:06:14;;;;;;;10.45;9.35;;;;;;;6.50;50.87;99463.88;10336019;28;20612;-49
2022/12/10 14:11:50;;;;;;;10.60;9.50;;;;;;;6.13;51.78;99471.91;10337547;28;20140;-49
2022/12/10 14:16:52;;;;;;;10.07;8.90;;;;;;;5.91;52.23;99488.47;10331625;28;20045;-49
2022/12/10 14:21:57;;;;;;;9.52;8.02;;;;;;;5.78;52.69;99487.69;10337252;28;22005;-49
2022/12/10 14:27:05;;;;;;;9.40;8.13;;;;;;;5.62;53.07;99495.88;10337337;28;20100;-56
2022/12/10 14:32:14;;;;;;;9.88;8.75;;;;;;;5.35;53.95;99490.78;10337136;28;20418;-49
2022/12/10 14:37:25;;;;;;;12.48;10.38;;;;;;;5.12;54.74;99495.91;10334592;28;20115;-49
2022/12/10 14:42:27;;;;;;;9.60;8.65;;;;;;;4.71;55.13;99510.13;10327820;28;20050;-49
2022/12/10 14:47:37;;;;;;;10.98;9.68;;;;;;;4.26;56.34;99484.13;10332196;28;20062;-49
2022/12/10 14:52:45;;;;;;;9.43;8.52;;;;;;;4.49;56.29;99530.03;10335198;28;20674;-50
2022/12/10 14:58:01;;;;;;;11.13;9.57;;;;;;;4.46;57.00;99524.97;10336995;28;20418;-52
2022/12/10 15:03:09;;;;;;;9.30;8.35;;;;;;;4.27;57.90;99535.03;10338779;28;20144;-49
2022/12/10 15:08:17;;;;;;;9.93;8.77;;;;;;;4.10;58.89;99537.00;10337615;28;20045;-48
2022/12/10 15:13:23;;;;;;;9.85;8.85;;;;;;;4.02;60.11;99531.34;10337629;28;20053;-49
2022/12/10 15:18:36;;;;;;;9.88;8.43;;;;;;;3.89;58.71;99542.69;10328285;28;20608;-49
2022/12/10 15:23:40;;;;;;;9.93;8.25;;;;;;;3.61;60.19;99542.75;10331059;28;20049;-49
2022/12/10 15:28:42;;;;;;;9.47;8.50;;;;;;;3.27;60.80;99540.44;10331104;28;20293;-53
2022/12/10 15:33:55;;;;;;;9.45;8.52;;;;;;;2.95;61.73;99540.59;10331667;28;20365;-49
2022/12/10 15:39:01;;;;;;;10.82;9.60;;;;;;;3.31;60.37;99538.47;10341062;28;20053;-52
2022/12/10 15:44:06;;;;;;;10.57;9.52;;;;;;;3.30;60.60;99545.53;10332314;28;20430;-49
2022/12/10 15:49:07;;;;;;;;;;;;;;;2.95;61.17;99510.84;10334386;28;20053;-50
2022/12/10 15:54:36;;;;;;;12.27;10.13;;;;;;;3.39;61.10;99545.88;10333950;28;19925;-49
2022/12/10 15:59:37;;;;;;;13.43;11.07;;;;;;;3.53;60.44;99551.97;10331656;28;20515;-49
2022/12/10 16:04:39;;;;;;;12.20;10.90;;;;;;;3.27;60.73;99544.84;10337588;28;20418;-48
2022/12/10 16:09:40;;;;;;;12.75;10.52;;;;;;;3.25;61.06;99546.75;10333097;28;20064;-51
2022/12/10 16:14:47;;;;;;;12.13;9.55;;;;;;;3.30;61.04;99555.19;10338654;28;20060;-50
2022/12/10 16:19:49;;;;;;;10.25;9.25;;;;;;;3.33;61.18;99562.88;10327147;28;20050;-47
2022/12/10 16:24:50;;;;;;;11.93;9.32;;;;;;;3.21;60.84;99555.75;10328463;28;20076;-49
2022/12/10 16:29:52;;;;;;;10.73;9.60;;;;;;;3.22;61.03;99565.34;10345823;28;20059;-48
2022/12/10 16:34:54;;;;;;;10.63;9.55;;;;;;;3.05;60.62;99575.09;10327270;28;20133;-49
2022/12/10 16:39:55;;;;;;;12.95;11.52;;;;;;;3.12;60.64;99567.66;10346729;28;20062;-50
2022/12/10 16:45:01;;;;;;;12.27;11.02;;;;;;;3.10;60.54;99569.56;10330497;28;20057;-50
2022/12/10 16:50:10;;;;;;;10.88;9.60;;;;;;;3.13;60.67;99574.63;10332658;28;20080;-49
2022/12/10 16:55:18;;;;;;;10.52;9.52;;;;;;;3.06;60.43;99574.13;10333069;28;20064;-50
2022/12/10 17:00:22;;;;;;;11.70;10.40;;;;;;;2.92;60.67;99572.34;10332836;28;20053;-49
2022/12/10 17:05:30;;;;;;;11.60;10.40;;;;;;;2.83;61.23;99584.25;10329310;28;20049;-49
2022/12/10 17:15:52;;;;;;;17.52;15.48;;;;;;;2.70;61.56;99593.78;10338825;28;20056;-51
2022/12/10 17:20:54;;;;;;;13.10;11.77;;;;;;;2.62;62.07;99596.03;10328170;28;20149;-50
2022/12/10 17:25:57;;;;;;;12.73;11.10;;;;;;;2.51;62.42;99588.78;10336488;28;20055;-50
2022/12/10 17:30:58;;;;;;;14.40;12.60;;;;;;;2.28;62.40;99576.94;10336853;28;20053;-49
2022/12/10 17:36:00;;;;;;;15.57;13.43;;;;;;;2.50;61.89;99602.00;10349259;28;20135;-50
2022/12/10 17:41:01;;;;;;;14.13;11.52;;;;;;;2.25;62.69;99600.75;10336228;28;20068;-49
2022/12/10 17:46:03;;;;;;;13.98;12.48;;;;;;;2.43;63.09;99606.75;10335745;28;20925;-50
2022/12/10 17:51:05;;;;;;;13.60;12.18;;;;;;;2.41;62.81;99616.50;10312767;28;20053;-49
2022/12/10 17:56:19;;;;;;;13.60;12.05;;;;;;;2.41;62.96;99621.75;10324060;28;20049;-50
2022/12/10 18:01:22;;;;;;;13.75;11.68;;;;;;;2.41;62.61;99621.75;10337895;28;20203;-50
2022/12/10 18:06:28;;;;;;;12.77;11.40;;;;;;;2.43;61.97;99620.75;10334581;28;20308;-48
2022/12/10 18:11:34;;;;;;;12.70;11.45;;;;;;;2.35;62.52;99617.69;10340274;28;20178;-50
2022/12/10 18:16:36;;;;;;;13.75;12.15;;;;;;;2.02;62.85;99618.63;10337543;28;20633;-50
2022/12/10 18:21:38;;;;;;;13.05;11.75;;;;;;;2.04;63.26;99624.66;10337135;28;20061;-49
2022/12/10 18:26:41;;;;;;;13.90;11.05;;;;;;;1.52;64.71;99630.94;10337725;28;20054;-49
2022/12/10 18:31:44;;;;;;;11.63;10.43;;;;;;;1.76;64.19;99636.66;10357116;28;20049;-49
2022/12/10 18:36:47;;;;;;;11.73;10.60;;;;;;;1.92;63.43;99633.19;10339272;28;20055;-49
2022/12/10 18:41:49;;;;;;;12.10;10.68;;;;;;;1.73;63.81;99628.94;10335032;28;20075;-51
2022/12/10 18:46:53;;;;;;;13.70;11.73;;;;;;;1.94;63.48;99631.34;10340111;28;20064;-48
2022/12/10 18:51:54;;;;;;;16.33;12.57;;;;;;;1.92;63.42;99633.19;10341133;28;21324;-49
2022/12/10 18:56:56;;;;;;;15.50;11.80;;;;;;;1.75;63.15;99637.56;10341904;28;20098;-48
2022/12/10 19:02:17;;;;;;;13.80;11.85;;;;;;;1.86;63.73;99644.03;10337961;28;20067;-50
2022/12/10 19:07:19;;;;;;;14.80;13.07;;;;;;;1.90;62.92;99642.94;10339659;28;20049;-52
2022/12/10 19:12:20;;;;;;;15.73;13.05;;;;;;;1.65;63.46;99628.53;10340205;28;20042;-51
2022/12/10 19:17:22;;;;;;;14.18;12.68;;;;;;;1.72;63.54;99640.38;10336964;28;20056;-51
2022/12/10 19:22:23;;;;;;;17.10;14.82;;;;;;;1.77;64.61;99630.50;10335297;28;20058;-49
2022/12/10 19:27:25;;;;;;;17.05;14.48;;;;;;;1.67;64.16;99634.53;10339385;28;20709;-51
2022/12/10 19:32:27;;;;;;;20.08;15.88;;;;;;;1.59;64.20;99637.56;10355973;28;20046;-50
2022/12/10 19:37:30;;;;;;;18.58;15.45;;;;;;;1.53;64.21;99631.78;10336494;28;20076;-51
2022/12/10 19:42:31;;;;;;;16.60;14.25;;;;;;;1.37;64.45;99643.09;10339553;28;20052;-49
2022/12/10 19:47:33;;;;;;;17.95;15.75;;;;;;;1.20;65.32;99650.97;10339166;28;20059;-50
2022/12/10 19:52:34;;;;;;;19.92;16.15;;;;;;;0.98;66.22;99657.31;10336369;28;20702;-54
2022/12/10 19:57:36;;;;;;;18.83;16.45;;;;;;;1.18;66.15;99650.22;10336075;28;20054;-49
2022/12/10 20:02:37;;;;;;;19.42;17.33;;;;;;;1.41;65.27;99651.63;10334040;28;20457;-50
2022/12/10 20:07:39;;;;;;;21.67;17.17;;;;;;;1.21;65.39;99652.69;10330932;28;20118;-51
2022/12/10 20:12:41;;;;;;;17.95;15.40;;;;;;;1.33;65.51;99661.69;10335931;28;20049;-50
2022/12/10 20:17:42;;;;;;;17.48;15.18;;;;;;;1.29;64.81;99666.25;10335675;28;20057;-50
2022/12/10 20:22:44;;;;;;;18.33;14.77;;;;;;;1.14;65.81;99661.78;10337579;28;20049;-49
2022/12/10 20:27:46;;;;;;;18.70;15.73;;;;;;;1.15;65.82;99668.72;10338624;28;20391;-49
2022/12/10 20:32:50;;;;;;;19.80;15.77;;;;;;;1.07;66.19;99669.13;10337280;28;20541;-51
2022/12/10 20:37:51;;;;;;;19.13;16.13;;;;;;;0.92;66.55;99662.88;10337796;28;20443;-52
2022/12/10 20:42:53;;;;;;;27.95;25.25;;;;;;;0.84;67.19;99659.78;10336280;28;20057;-50
2022/12/10 20:47:55;;;;;;;22.02;16.15;;;;;;;1.03;67.17;99659.69;10337089;28;20045;-50
2022/12/10 20:52:57;;;;;;;18.15;15.32;;;;;;;1.06;66.57;99657.75;10334836;28;20061;-50
2022/12/10 20:57:59;;;;;;;18.70;16.08;;;;;;;1.12;65.87;99661.84;10338836;28;20066;-48
2022/12/10 21:03:00;;;;;;;18.45;15.85;;;;;;;1.05;66.13;99653.47;10340072;28;20049;-49
2022/12/10 21:08:06;;;;;;;17.75;15.63;;;;;;;1.11;65.83;99661.94;10336916;28;20135;-50
2022/12/10 21:13:08;;;;;;;20.20;17.35;;;;;;;1.12;65.15;99651.38;10334024;28;20553;-50
2022/12/10 21:18:10;;;;;;;19.70;16.98;;;;;;;1.15;65.34;99642.50;10335392;28;20053;-49
2022/12/10 21:23:20;;;;;;;19.83;15.93;;;;;;;1.19;65.45;99654.53;10330211;28;21784;-50
2022/12/10 21:28:23;;;;;;;19.67;15.73;;;;;;;1.30;65.45;99652.19;10348951;28;20056;-49
2022/12/10 21:33:26;;;;;;;20.15;16.85;;;;;;;1.35;64.80;99647.59;10339012;28;20152;-50
2022/12/10 21:38:27;;;;;;;19.20;15.73;;;;;;;1.35;65.02;99657.19;10339856;28;20236;-50
2022/12/10 21:43:28;;;;;;;17.73;15.40;;;;;;;1.24;64.46;99657.75;10341172;28;21818;-50
2022/12/10 21:48:30;;;;;;;20.77;16.35;;;;;;;1.25;65.04;99654.22;10331355;28;21340;-49
2022/12/10 21:53:31;;;;;;;19.42;16.27;;;;;;;1.29;64.80;99654.91;10338876;28;20053;-49
2022/12/10 21:58:33;;;;;;;16.05;14.32;;;;;;;1.39;65.10;99654.34;10339517;28;20057;-50
2022/12/10 22:03:35;;;;;;;27.73;22.33;;;;;;;1.41;64.21;99655.13;10336219;28;20071;-50
2022/12/10 22:08:37;;;;;;;18.63;16.38;;;;;;;1.16;64.94;99647.66;10336858;28;20061;-50
2022/12/10 22:13:38;;;;;;;18.38;15.52;;;;;;;1.00;65.49;99625.78;10336869;28;20053;-50
2022/12/10 22:18:39;;;;;;;18.92;15.63;;;;;;;1.42;64.58;99654.19;10336905;28;20045;-50
2022/12/10 22:23:41;;;;;;;19.17;15.43;;;;;;;1.54;64.76;99651.84;10349745;28;20053;-49
2022/12/10 22:28:42;;;;;;;19.67;16.40;;;;;;;1.40;64.84;99648.16;10329291;28;20570;-50
2022/12/10 22:33:43;;;;;;;20.27;16.33;;;;;;;1.24;65.41;99647.28;10334843;28;20771;-49
2022/12/10 22:38:46;;;;;;;22.88;18.35;;;;;;;1.03;65.85;99631.72;10334836;28;20055;-50
2022/12/10 22:43:48;;;;;;;19.73;16.80;;;;;;;0.84;66.79;99642.28;10334479;28;20088;-51
2022/12/10 22:48:51;;;;;;;20.10;17.60;;;;;;;0.82;67.16;99644.13;10338747;28;20060;-49
2022/12/10 22:53:54;;;;;;;21.20;17.10;;;;;;;0.97;66.82;99645.13;10335224;28;20474;-50
2022/12/10 22:58:57;;;;;;;19.17;16.63;;;;;;;1.11;66.37;99648.81;10329709;28;20053;-50
2022/12/10 23:03:58;;;;;;;19.83;16.48;;;;;;;0.96;66.26;99648.69;10331314;28;20045;-50
2022/12/10 23:09:00;;;;;;;19.33;16.95;;;;;;;0.81;67.11;99649.44;10334553;28;20084;-51
2022/12/10 23:14:01;;;;;;;21.45;17.52;;;;;;;0.98;66.89;99638.97;10334281;28;20057;-50
2022/12/10 23:19:03;;;;;;;22.25;17.80;;;;;;;0.91;66.58;99634.97;10328176;28;20829;-50
2022/12/10 23:24:04;;;;;;;21.52;17.48;;;;;;;0.94;66.74;99634.81;10324930;28;20057;-50
2022/12/10 23:29:06;;;;;;;22.80;18.23;;;;;;;0.75;67.54;99629.66;10327138;28;20875;-49
2022/12/10 23:34:07;;;;;;;22.23;17.83;;;;;;;0.48;68.30;99622.22;10331156;28;20045;-49
2022/12/10 23:39:09;;;;;;;22.33;17.25;;;;;;;0.43;68.31;99618.13;10333231;28;20056;-49
2022/12/10 23:44:10;;;;;;;23.33;19.10;;;;;;;0.48;68.81;99617.00;10329264;28;20449;-50